Lucas Tavares

Scout - Fluminense
3 Apr 2027
Samstag
Verarbeitung

Persönlichkeit

Anpassungsfähigkeit (2) Ehrgeiz (6) Kontroverse (1) Loyalität (19) Druck (13) Professionalität (3) Fairness (15) Temperament (4)

Profil

Trainerstil Demokratisch
Lizenz Kontinentale B
Entschlossenheit 15
Menschenführung 9
Motivation 14
Disziplin 13
Arbeitszufriedenheit
100%
Ermüdung
0%
Rolle Scout
Gehalt 60.8K p/W
Vertrag 14.03.2028

Leistung

Verhalten Gut
Trainingseffektivität
58%
Spielerentwicklung
35%
Verletzungsprävention
40%
Taktische Umsetzung
65%

Letzte Ereignisse

Nahm an einer Scouting-Besprechung teil jetzt
Spieler begutachtet jetzt
Spieler begutachtet 7T her
Nahm an einer Scouting-Besprechung teil 7T her
Spieler begutachtet 7T her
Spieler begutachtet 7T her
Spieler begutachtet 7T her
Spieler begutachtet 7T her

Aktuell beobachtet

103
Spieler Verein Status Fähigkeit Vertrauen Beobachtet Zuletzt beobachtet Letzte Stimme
Eduardo Felicíssimo Sporting CP Aktiv 106 / 113 40% 3 02.04.2027 -
Louis Leroux FC Nantes Aktiv 119 / 125 40% 1 02.04.2027 -
Martim Cunha Porto Aktiv 94 / 105 40% 1 02.04.2027 -
Gonçalo Oliveira Benfica Aktiv 111 / 115 40% 3 31.03.2027 -
Vinícius Lira Santos Aktiv 118 / 121 40% 2 31.03.2027 -
Toni Tamarit Alverca Aktiv 120 / 126 40% 1 31.03.2027 -
Anthony Patterson Wrexham Aktiv 139 / 127 40% 4 30.03.2027 -
Michael Cooper Sheffield United Aktiv 140 / 135 40% 5 30.03.2027 -
Myles Roberts Doncaster Rovers Aktiv 95 / 109 40% 2 30.03.2027 -
Bastien Meupiyou Alverca Aktiv 114 / 121 40% 2 28.03.2027 -
Miguel Figueiredo Benfica Aktiv 99 / 117 40% 1 28.03.2027 -
Bilal Bayazıt Kayserispor Aktiv 113 / 128 40% 1 27.03.2027 -
Lorenzo Palmisani Frosinone Aktiv 130 / 135 40% 1 27.03.2027 -
Eddy Doué Estrela da Amadora Aktiv 99 / 110 40% 2 24.03.2027 -
Milan Roganović Partizan Aktiv 113 / 115 40% 1 24.03.2027 -
Eliás Montiel Pachuca Aktiv 129 / 131 40% 1 23.03.2027 -
Moncef Zekri Sporting CP Aktiv 98 / 108 40% 1 23.03.2027 -
Caleb Yirenkyi Coventry City Aktiv 125 / 143 40% 2 22.03.2027 -
Bernardo Lima Porto Aktiv 104 / 102 40% 2 22.03.2027 -
Chris Rigg Sunderland Aktiv 123 / 143 40% 2 20.03.2027 -
Daniel Banjaqui Benfica Aktiv 111 / 116 40% 2 20.03.2027 -
James Dornelly Peterborough United Aktiv 93 / 111 40% 1 20.03.2027 -
Joaquin Seys Club Brugge Aktiv 136 / 126 40% 1 14.03.2027 -
Salvador Blopá Sporting CP Aktiv 109 / 121 40% 1 13.03.2027 -
Jakub Stolarczyk Leicester City Aktiv 136 / 133 40% 5 09.03.2027 -
Adriel Torreense Aktiv 109 / 116 40% 3 09.03.2027 -
Lucas Cañizares Tondela Aktiv 105 / 111 40% 2 09.03.2027 -
Cezary Miszta Rio Ave Aktiv 122 / 127 40% 6 08.03.2027 -
Antonio Gomis Vizela Aktiv 117 / 118 40% 2 08.03.2027 -
Nacer Tielemans Mouscron Aktiv 130 / 131 40% 1 05.03.2027 -
Honest Ahanor Atalanta Aktiv 131 / 130 40% 1 05.03.2027 -
Ruslan Neshcheret Dynamo Kyiv Aktiv 116 / 117 40% 2 04.03.2027 -
Gabriel Brazão Santos Aktiv 130 / 139 40% 8 02.03.2027 -
Zach Hemming Chesterfield Aktiv 98 / 109 40% 1 02.03.2027 -
Lukas Jensen Millwall Aktiv 118 / 117 40% 2 27.02.2027 -
Juan Diego Castillo Vitoria Guimaraes Aktiv 121 / 118 40% 1 27.02.2027 -
Sam Tickle Wigan Athletic Aktiv 138 / 131 40% 4 23.02.2027 -
Taye Ashby-Hammond Walsall Aktiv 108 / 108 40% 3 23.02.2027 -
Mandla Jali SuperSport United Aktiv 115 / 115 40% 2 20.02.2027 -
Nathan Bishop AFC Wimbledon Aktiv 109 / 103 40% 2 20.02.2027 -
Will Dennis Milton Keynes Dons Aktiv 105 / 106 40% 1 20.02.2027 -
Jordan Amissah Burton Albion Aktiv 107 / 109 40% 1 14.02.2027 -
Bernardo Fontes Braga Aktiv 137 / 124 40% 4 13.02.2027 -
Edoardo Corvi Parma Aktiv 138 / 137 40% 1 09.02.2027 -
Egoitz Arana Real Sociedad Aktiv 107 / 108 40% 1 09.02.2027 -
Christian Joel Sánchez Leiria Aktiv 109 / 113 40% 3 06.02.2027 -
Vitor Hugo Lusitânia Lourosa Aktiv 100 / 108 40% 2 31.01.2027 -
Axel Alderweireld KV Oostende Aktiv 144 / 136 40% 1 31.01.2027 -
Jakub Surovčík Sparta Prague Aktiv 112 / 114 40% 1 31.01.2027 -
Alfonso Pastor Maritimo Aktiv 109 / 103 40% 4 25.01.2027 -
Oleksandr Saputin Zorya Aktiv 127 / 127 40% 1 25.01.2027 -
Leo Kokubo Sint-Truiden Aktiv 120 / 113 40% 1 25.01.2027 -
Elia Caprile Cagliari Aktiv 140 / 140 40% 1 21.01.2027 -
Hugo Souza Corinthians Aktiv 130 / 135 40% 6 09.01.2027 -
Yehvann Diouf OGC Nice Aktiv 141 / 131 40% 1 09.01.2027 -
Jamie Cumming Oxford United Aktiv 130 / 118 40% 2 08.01.2027 -
Radek Vítek Middlesbrough Aktiv 129 / 134 40% 4 08.01.2027 -
Iñaki Peña Panathinaikos Aktiv 141 / 134 40% 1 08.01.2027 -
Patrick Sequeira Casa Pia Aktiv 123 / 126 40% 5 20.12.2026 -
Matheus Mendes Alverca Aktiv 128 / 115 40% 2 20.12.2026 -
Mateo Cassierra Atlético Mineiro Abgelehnt 140 / 138 72% 1 02.12.2026 -
Korede Osundina Casa Pia Aktiv 107 / 113 40% 2 27.11.2026 -
José Bica Leixões Aktiv 112 / 103 40% 2 27.11.2026 -
Efraín Álvarez Guadalajara Aktiv 129 / 134 40% 1 27.11.2026 -
Vinícius Lopes Santa Clara Aktiv 112 / 124 40% 2 25.11.2026 -
Martín Tejón Maritimo Aktiv 108 / 118 40% 2 25.11.2026 -
Cesar Corona Veracruz Aktiv 144 / 137 40% 1 25.11.2026 -
Óscar Aranda Espanyol Aktiv 131 / 127 40% 2 24.11.2026 -
Giorgos Koutsias Famalicao Aktiv 111 / 126 40% 1 24.11.2026 -
Gustavo Silva Vitoria Guimaraes Aktiv 120 / 124 40% 1 24.11.2026 -
Sydney van Hooijdonk Estrela da Amadora Aktiv 118 / 113 40% 2 15.11.2026 -
Lucas Duarte Felgueiras Aktiv 103 / 106 40% 3 15.11.2026 -
Lazar Carević Famalicao Aktiv 129 / 133 40% 4 13.11.2026 -
Leo Román Deportivo La Coruña Aktiv 149 / 149 40% 3 13.11.2026 -
João Valido Chaves Aktiv 118 / 116 40% 4 12.11.2026 -
Camilo Durán Bloemfontein Celtic Aktiv 111 / 124 40% 2 10.11.2026 -
Tamble Monteiro Rio Ave Aktiv 125 / 124 40% 1 10.11.2026 -
Nicolò Tresoldi Club Brugge Aktiv 122 / 132 40% 1 10.11.2026 -
Luis Ingolotti Atlético Tucumán Aktiv 121 / 122 40% 2 08.11.2026 -
Alexandre Duville-Parsemain Moreirense Aktiv 115 / 113 40% 2 05.11.2026 -
Carl Rushworth Coventry City Aktiv 142 / 134 40% 2 03.11.2026 -
Nicolás Sumavil Platense Aktiv 122 / 112 40% 3 29.10.2026 -
Sebastián Meza Huracán Aktiv 129 / 126 40% 1 27.10.2026 -
Manuel Baldé Wadi Degla Aktiv 106 / 92 40% 2 21.10.2026 -
Esteban Glellel Shonan Bellmare Aktiv 115 / 112 40% 1 18.10.2026 -
João Costa Santa Clara Aktiv 120 / 112 40% 1 16.10.2026 -
Louis Munteanu DC United Aktiv 131 / 129 40% 1 16.10.2026 -
Luca Orellano Monterrey Aktiv 141 / 130 40% 2 14.10.2026 -
Jalen Blesa Rio Ave Aktiv 113 / 111 40% 1 14.10.2026 -
Michy Fellaini KV Oostende Aktiv 145 / 139 40% 1 13.10.2026 -
Luan Santos Imotski Aktiv 101 / 90 40% 1 13.10.2026 -
Cheikh Sabaly Vancouver Whitecaps Aktiv 120 / 124 40% 1 07.10.2026 -
Alfonso Trezza Arouca Aktiv 120 / 120 40% 1 02.10.2026 -
Henrique Araújo Casa Pia Aktiv 122 / 127 40% 2 29.09.2026 -
Tiago Silva Penafiel Aktiv 104 / 111 40% 1 28.09.2026 -
Lucão Gil Vicente Aktiv 115 / 119 40% 1 22.09.2026 -
Dylan Nandín Arouca Aktiv 120 / 110 40% 1 14.09.2026 -
Samuel Soares Benfica Aktiv 124 / 134 40% 1 13.09.2026 -
Roberto Fernández Braga Aktiv 141 / 145 40% 1 11.09.2026 -
Gabriel Barbosa Farense Aktiv 116 / 113 40% 1 11.09.2026 -
Figueiredo Alverca Aktiv 122 / 125 40% 1 01.09.2026 -
Vitor Roque Palmeiras Aktiv 135 / 150 40% 1 01.09.2026 -
Pau Víctor Braga Aktiv 143 / 134 40% 1 01.09.2026 -